Time;durP1;ratioP1;P1;durP2;ratioP2;P2;SDS_P1;SDS_P2;PMS_P1;PMS_P2;Temp;Humidity;BMP_temperature;BMP_pressure;BME280_temperature;BME280_humidity;BME280_pressure;Samples;Min_cycle;Max_cycle;Signal;HPM_P1;HPM_P2
2021/06/30 00:00:07;;;;;;;6.00;5.50;;;17.10;99.90;;;;;;5045140;28;20216;-44
2021/06/30 00:02:33;;;;;;;6.60;6.10;;;17.10;99.90;;;;;;5046576;28;20374;-46
2021/06/30 00:04:59;;;;;;;8.17;7.40;;;17.10;99.90;;;;;;5034493;28;21082;-44
2021/06/30 00:07:24;;;;;;;8.27;7.57;;;17.10;99.90;;;;;;5041818;28;20529;-44
2021/06/30 00:09:50;;;;;;;9.20;8.40;;;17.10;99.90;;;;;;5046200;28;20577;-43
2021/06/30 00:12:16;;;;;;;9.20;8.30;;;17.10;99.90;;;;;;5046196;28;20209;-44
2021/06/30 00:14:41;;;;;;;9.50;8.50;;;17.10;99.90;;;;;;5045425;28;20206;-42
2021/06/30 00:17:09;;;;;;;8.90;8.17;;;17.00;99.90;;;;;;5045051;28;20190;-45
2021/06/30 00:19:35;;;;;;;9.37;8.47;;;17.00;99.90;;;;;;5039753;28;20232;-43
2021/06/30 00:22:01;;;;;;;10.00;9.10;;;17.00;99.90;;;;;;5044819;28;20637;-44
2021/06/30 00:24:27;;;;;;;10.10;9.20;;;17.00;99.90;;;;;;5045540;28;20427;-43
2021/06/30 00:26:53;;;;;;;11.00;10.00;;;17.00;99.90;;;;;;5045855;28;20485;-42
2021/06/30 00:29:18;;;;;;;9.60;8.70;;;16.90;99.90;;;;;;5046453;28;20892;-45
2021/06/30 00:31:44;;;;;;;9.80;8.87;;;16.90;99.90;;;;;;5045833;28;20197;-44
2021/06/30 00:34:10;;;;;;;10.40;9.50;;;16.90;99.90;;;;;;5042887;28;20192;-42
2021/06/30 00:36:43;;;;;;;10.90;9.90;;;16.90;99.90;;;;;;5037383;28;20275;-42
2021/06/30 00:39:09;;;;;;;10.10;9.10;;;16.90;99.90;;;;;;5044838;28;20238;-48
2021/06/30 00:41:35;;;;;;;9.50;8.60;;;16.90;99.90;;;;;;5046151;28;20428;-47
2021/06/30 00:44:01;;;;;;;8.70;7.80;;;16.80;99.90;;;;;;5044370;28;20574;-45
2021/06/30 00:46:30;;;;;;;11.10;10.10;;;16.80;99.90;;;;;;5045740;28;20569;-42
2021/06/30 00:48:56;;;;;;;10.00;9.10;;;16.80;99.90;;;;;;5045934;28;20850;-43
2021/06/30 00:51:23;;;;;;;9.43;8.53;;;16.80;99.90;;;;;;5033899;28;20443;-47
2021/06/30 00:53:48;;;;;;;10.23;9.30;;;16.70;99.90;;;;;;5045373;28;20751;-45
2021/06/30 00:56:14;;;;;;;10.57;9.47;;;16.70;99.90;;;;;;5045796;28;20554;-43
2021/06/30 00:58:40;;;;;;;10.23;9.03;;;16.70;99.90;;;;;;5045826;28;20569;-42
2021/06/30 01:01:06;;;;;;;9.80;8.83;;;16.70;99.90;;;;;;5045615;28;20436;-44
2021/06/30 01:03:33;;;;;;;9.87;8.87;;;16.70;99.90;;;;;;5045348;28;20221;-48
2021/06/30 01:05:59;;;;;;;10.07;9.17;;;16.70;99.90;;;;;;5036571;28;20714;-41
2021/06/30 01:08:25;;;;;;;9.97;9.07;;;16.70;99.90;;;;;;5045541;28;20744;-45
2021/06/30 01:10:51;;;;;;;10.07;9.17;;;16.70;99.90;;;;;;5045667;28;20232;-44
2021/06/30 01:13:16;;;;;;;12.70;10.20;;;16.70;99.90;;;;;;5043711;28;20193;-42
2021/06/30 01:15:56;;;;;;;10.87;9.87;;;16.60;99.90;;;;;;5042540;28;20939;-43
2021/06/30 01:18:23;;;;;;;9.50;8.60;;;16.60;99.90;;;;;;5045489;28;20190;-42
2021/06/30 01:20:50;;;;;;;10.13;9.17;;;16.60;99.90;;;;;;5038027;28;20482;-45
2021/06/30 01:23:16;;;;;;;10.17;9.27;;;16.60;99.90;;;;;;5043306;28;20412;-42
2021/06/30 01:25:43;;;;;;;9.30;8.43;;;16.60;99.90;;;;;;5048890;28;20428;-43
2021/06/30 01:28:08;;;;;;;10.43;9.50;;;16.70;99.90;;;;;;5048920;28;20884;-42
2021/06/30 01:30:34;;;;;;;10.93;9.83;;;16.60;99.90;;;;;;5049604;28;20579;-48
2021/06/30 01:33:01;;;;;;;9.97;8.97;;;16.60;99.90;;;;;;5048597;28;20197;-41
2021/06/30 01:35:27;;;;;;;10.90;9.80;;;16.50;99.90;;;;;;5040962;28;20222;-43
2021/06/30 01:37:54;;;;;;;10.70;9.70;;;16.50;99.90;;;;;;5047920;28;20424;-44
2021/06/30 01:40:21;;;;;;;10.70;9.60;;;16.40;99.90;;;;;;5048139;28;20804;-45
2021/06/30 01:42:48;;;;;;;11.10;10.00;;;16.40;99.90;;;;;;5048381;28;20409;-44
2021/06/30 01:45:14;;;;;;;11.87;10.77;;;16.40;99.90;;;;;;5048549;28;20640;-42
2021/06/30 01:47:41;;;;;;;10.73;9.63;;;16.30;99.90;;;;;;5048904;28;20828;-45
2021/06/30 01:50:07;;;;;;;10.63;9.53;;;16.40;99.90;;;;;;5043349;28;20429;-44
2021/06/30 01:52:33;;;;;;;11.03;9.93;;;16.30;99.90;;;;;;5045355;28;20424;-42
2021/06/30 01:54:59;;;;;;;12.30;11.20;;;16.40;99.90;;;;;;5047828;28;20454;-43
2021/06/30 01:57:25;;;;;;;12.43;11.17;;;16.40;99.90;;;;;;5048845;28;20428;-46
2021/06/30 01:59:51;;;;;;;11.30;9.97;;;16.30;99.90;;;;;;5047762;28;20431;-43
2021/06/30 02:02:16;;;;;;;11.37;10.17;;;16.30;99.90;;;;;;5048707;28;20657;-46
2021/06/30 02:04:48;;;;;;;11.00;9.90;;;16.20;99.90;;;;;;5046508;28;20550;-44
2021/06/30 02:07:14;;;;;;;12.00;10.63;;;16.20;99.90;;;;;;5038536;28;20197;-43
2021/06/30 02:09:39;;;;;;;11.53;10.40;;;16.20;99.90;;;;;;5046888;28;20444;-44
2021/06/30 02:12:05;;;;;;;11.17;10.07;;;16.20;99.90;;;;;;5048154;28;20217;-44
2021/06/30 02:14:31;;;;;;;12.37;11.17;;;16.20;99.90;;;;;;5046594;28;20582;-45
2021/06/30 02:16:57;;;;;;;11.00;9.90;;;16.20;99.90;;;;;;5045319;28;20433;-43
2021/06/30 02:19:22;;;;;;;11.53;10.40;;;16.20;99.90;;;;;;5048338;28;20186;-45
2021/06/30 02:21:48;;;;;;;12.70;11.40;;;16.10;99.90;;;;;;5036538;28;20218;-45
2021/06/30 02:24:14;;;;;;;13.23;11.93;;;16.10;99.90;;;;;;5047419;28;20213;-45
2021/06/30 02:26:39;;;;;;;11.77;10.60;;;16.10;99.90;;;;;;5047652;28;20236;-45
2021/06/30 02:29:05;;;;;;;12.17;11.07;;;16.00;99.90;;;;;;5048296;28;20190;-45
2021/06/30 02:31:31;;;;;;;13.47;12.07;;;16.00;99.90;;;;;;5047841;28;20555;-43
2021/06/30 02:33:57;;;;;;;14.50;13.00;;;16.00;99.90;;;;;;5047749;28;20186;-45
2021/06/30 02:36:22;;;;;;;13.67;12.27;;;16.00;99.90;;;;;;5035914;28;20245;-43
2021/06/30 02:38:48;;;;;;;15.00;13.60;;;16.00;99.90;;;;;;5047894;28;20428;-45
2021/06/30 02:41:15;;;;;;;13.90;12.50;;;16.00;99.90;;;;;;5047363;28;20193;-44
2021/06/30 02:43:41;;;;;;;13.50;12.20;;;16.00;99.90;;;;;;5047579;28;20592;-44
2021/06/30 02:46:07;;;;;;;13.53;12.23;;;16.00;99.90;;;;;;5047740;28;20797;-44
2021/06/30 02:48:34;;;;;;;13.53;11.93;;;16.00;99.90;;;;;;5047913;28;20431;-42
2021/06/30 02:50:59;;;;;;;13.47;12.07;;;16.00;99.90;;;;;;5040303;28;20432;-46
2021/06/30 02:53:25;;;;;;;13.50;12.20;;;16.00;99.90;;;;;;5042636;28;20814;-43
2021/06/30 02:55:51;;;;;;;13.00;11.67;;;16.00;99.90;;;;;;5046301;28;20463;-45
2021/06/30 02:58:17;;;;;;;14.10;12.60;;;16.00;99.90;;;;;;5047973;28;20235;-42
2021/06/30 03:00:42;;;;;;;12.30;11.00;;;15.90;99.90;;;;;;5047554;28;20216;-45
2021/06/30 03:03:08;;;;;;;12.93;11.63;;;16.00;99.90;;;;;;5046959;28;20186;-44
2021/06/30 03:05:34;;;;;;;13.77;12.37;;;15.90;99.90;;;;;;5042046;28;20609;-44
2021/06/30 03:08:00;;;;;;;13.43;12.13;;;15.90;99.90;;;;;;5042755;28;20420;-42
2021/06/30 03:10:26;;;;;;;13.70;12.03;;;15.90;99.90;;;;;;5045637;28;20431;-43
2021/06/30 03:12:52;;;;;;;13.80;12.40;;;15.90;99.90;;;;;;5046703;28;20194;-44
2021/06/30 03:15:17;;;;;;;13.53;12.13;;;15.90;99.90;;;;;;5046761;28;20486;-43
2021/06/30 03:17:43;;;;;;;13.87;12.40;;;15.90;99.90;;;;;;5046929;28;20190;-43
2021/06/30 03:20:13;;;;;;;13.50;12.10;;;15.90;99.90;;;;;;5045292;28;20193;-45
2021/06/30 03:22:40;;;;;;;13.70;11.77;;;15.90;99.90;;;;;;5038566;28;20786;-42
2021/06/30 03:25:08;;;;;;;13.47;11.83;;;15.90;99.90;;;;;;5046574;28;20455;-44
2021/06/30 03:27:33;;;;;;;15.03;13.40;;;15.80;99.90;;;;;;5047215;28;20777;-43
2021/06/30 03:29:59;;;;;;;15.13;12.60;;;15.80;99.90;;;;;;5045420;28;20428;-45
2021/06/30 03:32:25;;;;;;;12.63;11.03;;;15.80;99.90;;;;;;5047424;28;20194;-42
2021/06/30 03:34:50;;;;;;;13.33;11.27;;;15.80;99.90;;;;;;5045850;28;20213;-46
2021/06/30 03:37:16;;;;;;;15.23;11.30;;;15.80;99.90;;;;;;5035510;28;20189;-45
2021/06/30 03:39:42;;;;;;;13.20;11.53;;;15.80;99.90;;;;;;5046324;28;20577;-48
2021/06/30 03:42:07;;;;;;;12.13;10.93;;;15.90;99.90;;;;;;5045505;28;20222;-46
2021/06/30 03:44:33;;;;;;;12.70;11.47;;;15.90;99.90;;;;;;5044755;28;20283;-44
2021/06/30 03:46:59;;;;;;;10.87;9.77;;;15.90;99.90;;;;;;5046257;28;20193;-46
2021/06/30 03:49:25;;;;;;;10.83;9.70;;;15.90;99.90;;;;;;5046406;28;20197;-45
2021/06/30 03:51:51;;;;;;;10.83;9.80;;;15.90;99.90;;;;;;5037543;28;20205;-42
2021/06/30 03:54:16;;;;;;;12.20;10.40;;;16.00;99.90;;;;;;5046136;28;20417;-45
2021/06/30 03:56:42;;;;;;;12.07;10.70;;;16.00;99.90;;;;;;5045184;28;20189;-46
2021/06/30 03:59:08;;;;;;;11.63;10.53;;;16.00;99.90;;;;;;5044998;28;20192;-42
2021/06/30 04:01:33;;;;;;;10.97;9.87;;;16.10;99.90;;;;;;5046492;28;20190;-44
2021/06/30 04:04:05;;;;;;;11.43;10.33;;;16.10;99.90;;;;;;5046009;28;20193;-44
2021/06/30 04:06:31;;;;;;;11.60;10.33;;;16.10;99.90;;;;;;5039346;28;20218;-44
2021/06/30 04:08:56;;;;;;;12.30;10.37;;;16.10;99.90;;;;;;5043713;28;20943;-46
2021/06/30 04:11:22;;;;;;;11.87;9.90;;;16.10;99.90;;;;;;5045019;28;20276;-42
2021/06/30 04:13:47;;;;;;;12.47;10.30;;;16.10;99.90;;;;;;5046006;28;20220;-42
2021/06/30 04:16:13;;;;;;;10.57;9.57;;;16.20;99.90;;;;;;5044902;28;20737;-42
2021/06/30 04:18:39;;;;;;;12.43;9.90;;;16.10;99.90;;;;;;5045009;28;20190;-45
2021/06/30 04:21:05;;;;;;;12.63;10.67;;;16.10;99.90;;;;;;5043626;28;20205;-44
2021/06/30 04:23:34;;;;;;;12.30;11.00;;;16.10;99.90;;;;;;5037443;28;20503;-45
2021/06/30 04:26:00;;;;;;;17.33;11.23;;;16.10;99.90;;;;;;5045776;28;20863;-44
2021/06/30 04:28:26;;;;;;;11.40;10.20;;;16.10;99.90;;;;;;5046248;28;20505;-44
2021/06/30 04:30:52;;;;;;;10.93;9.70;;;16.10;99.90;;;;;;5045908;28;20432;-46
2021/06/30 04:33:17;;;;;;;11.30;10.20;;;16.10;99.90;;;;;;5045484;28;20194;-43
2021/06/30 04:35:43;;;;;;;10.77;9.67;;;16.10;99.90;;;;;;5045608;28;20205;-43
2021/06/30 04:38:09;;;;;;;13.00;10.00;;;16.10;99.90;;;;;;5038344;28;20530;-45
2021/06/30 04:40:34;;;;;;;10.60;9.40;;;16.10;99.90;;;;;;5046171;28;20617;-44
2021/06/30 04:43:00;;;;;;;10.60;9.50;;;16.10;99.90;;;;;;5045329;28;20267;-44
2021/06/30 04:45:25;;;;;;;10.73;9.63;;;16.00;99.90;;;;;;5045957;28;20182;-46
2021/06/30 04:47:51;;;;;;;11.77;10.57;;;16.10;99.90;;;;;;5044520;28;20220;-47
2021/06/30 04:50:17;;;;;;;12.10;10.70;;;16.00;99.90;;;;;;5045814;28;20190;-42
2021/06/30 04:52:42;;;;;;;11.50;10.23;;;16.10;99.90;;;;;;5033245;28;20610;-44
2021/06/30 04:55:09;;;;;;;13.10;10.67;;;16.10;99.90;;;;;;5045112;28;20300;-41
2021/06/30 04:57:36;;;;;;;12.03;9.70;;;16.10;99.90;;;;;;5046232;28;20226;-44
2021/06/30 05:00:07;;;;;;;14.93;11.10;;;16.10;99.90;;;;;;5048860;28;20420;-43
2021/06/30 05:02:32;;;;;;;11.43;10.37;;;16.10;99.90;;;;;;5049711;28;20447;-47
2021/06/30 05:04:58;;;;;;;13.30;11.70;;;16.10;99.90;;;;;;5048948;28;20926;-43
2021/06/30 05:07:24;;;;;;;12.80;11.40;;;16.10;99.90;;;;;;5039881;28;20744;-42
2021/06/30 05:09:50;;;;;;;11.87;10.77;;;16.10;99.90;;;;;;5048498;28;20224;-42
2021/06/30 05:12:15;;;;;;;11.50;10.30;;;16.10;99.90;;;;;;5049195;28;20436;-48
2021/06/30 05:14:41;;;;;;;13.07;11.07;;;16.10;99.90;;;;;;5048896;28;20201;-44
2021/06/30 05:17:07;;;;;;;12.20;11.00;;;16.10;99.90;;;;;;5048406;28;20640;-44
2021/06/30 05:19:32;;;;;;;13.33;11.00;;;16.20;99.90;;;;;;5049112;28;20216;-43
2021/06/30 05:21:58;;;;;;;11.67;10.47;;;16.20;99.90;;;;;;5045283;28;20595;-44
2021/06/30 05:24:24;;;;;;;10.23;9.13;;;16.20;99.90;;;;;;5044380;28;20486;-42
2021/06/30 05:26:50;;;;;;;10.63;9.53;;;16.20;99.90;;;;;;5049084;28;20552;-43
2021/06/30 05:29:16;;;;;;;10.27;9.27;;;16.20;99.90;;;;;;5049199;28;20190;-47
2021/06/30 05:31:42;;;;;;;9.70;8.70;;;16.20;99.90;;;;;;5049245;28;20515;-46
2021/06/30 05:34:08;;;;;;;10.90;8.10;;;16.30;99.90;;;;;;5048011;28;20510;-45
2021/06/30 05:36:34;;;;;;;9.07;8.17;;;16.30;99.90;;;;;;5048843;28;20513;-44
2021/06/30 05:39:00;;;;;;;9.50;8.40;;;16.30;99.90;;;;;;5049401;28;20190;-48
2021/06/30 05:41:25;;;;;;;9.47;8.57;;;16.30;99.90;;;;;;5061635;28;20435;-44
2021/06/30 05:43:51;;;;;;;9.30;8.00;;;16.30;99.90;;;;;;5068350;28;20185;-43
2021/06/30 05:46:18;;;;;;;8.13;7.30;;;16.30;99.90;;;;;;5059572;28;20193;-43
2021/06/30 05:48:44;;;;;;;9.27;8.37;;;16.40;99.90;;;;;;5067409;28;20203;-42
2021/06/30 05:51:11;;;;;;;8.60;7.63;;;16.40;99.90;;;;;;5068757;28;20431;-44
2021/06/30 05:53:37;;;;;;;7.43;6.30;;;16.50;99.90;;;;;;5035514;28;20449;-45
2021/06/30 05:56:04;;;;;;;6.27;5.67;;;16.50;99.90;;;;;;5049581;28;20455;-43
2021/06/30 05:58:30;;;;;;;7.47;5.90;;;16.60;99.90;;;;;;5049655;28;20420;-45
2021/06/30 06:00:56;;;;;;;6.00;5.40;;;16.60;99.90;;;;;;5047432;28;20486;-42
2021/06/30 06:03:21;;;;;;;5.80;5.13;;;16.80;99.90;;;;;;5046752;28;20190;-43
2021/06/30 06:05:47;;;;;;;4.13;3.83;;;16.90;99.90;;;;;;5062924;28;20197;-45
2021/06/30 06:08:13;;;;;;;4.47;4.03;;;17.00;99.90;;;;;;5042942;28;20206;-43
2021/06/30 06:10:38;;;;;;;4.63;3.53;;;17.00;99.90;;;;;;5047667;28;20668;-45
2021/06/30 06:13:04;;;;;;;3.23;2.93;;;17.10;99.90;;;;;;5056257;28;20197;-42
2021/06/30 06:15:30;;;;;;;3.53;3.23;;;17.20;99.90;;;;;;5037741;28;20705;-43
2021/06/30 06:17:56;;;;;;;4.00;3.50;;;17.30;99.90;;;;;;5047925;28;20438;-45
2021/06/30 06:20:22;;;;;;;3.20;2.60;;;17.40;99.90;;;;;;5050296;28;20192;-42
2021/06/30 06:22:47;;;;;;;4.33;3.00;;;17.60;99.90;;;;;;5042500;28;20834;-42
2021/06/30 06:25:13;;;;;;;3.50;3.20;;;17.70;99.90;;;;;;5043905;28;20235;-45
2021/06/30 06:27:39;;;;;;;3.30;2.97;;;17.70;99.90;;;;;;5048021;28;20325;-44
2021/06/30 06:30:09;;;;;;;3.80;3.43;;;17.70;99.90;;;;;;5048192;28;20217;-45
2021/06/30 06:32:36;;;;;;;4.17;3.00;;;17.60;99.90;;;;;;5047801;28;20192;-45
2021/06/30 06:35:04;;;;;;;3.60;2.80;;;17.60;99.90;;;;;;5047475;28;20482;-44
2021/06/30 06:37:30;;;;;;;4.70;3.40;;;17.60;99.90;;;;;;5042642;28;20586;-48
2021/06/30 06:39:56;;;;;;;3.90;3.17;;;17.60;99.90;;;;;;5043430;28;20783;-48
2021/06/30 06:42:23;;;;;;;3.37;3.07;;;17.50;99.90;;;;;;5047809;28;20435;-42
2021/06/30 06:44:49;;;;;;;4.00;3.17;;;17.50;99.90;;;;;;5047125;28;20424;-46
2021/06/30 06:47:14;;;;;;;3.50;3.20;;;17.50;99.90;;;;;;5047307;28;20436;-45
2021/06/30 06:49:40;;;;;;;4.23;3.93;;;17.50;99.90;;;;;;5047893;28;20507;-44
2021/06/30 06:52:06;;;;;;;4.40;4.00;;;17.40;99.90;;;;;;5046471;28;20228;-44
2021/06/30 06:54:31;;;;;;;4.03;3.73;;;17.50;99.90;;;;;;5036908;28;20560;-44
2021/06/30 06:56:57;;;;;;;5.40;4.90;;;17.40;99.90;;;;;;5047647;28;20186;-47
2021/06/30 06:59:23;;;;;;;5.13;4.63;;;17.40;99.90;;;;;;5048326;28;20189;-42
2021/06/30 07:01:48;;;;;;;5.00;4.60;;;17.40;99.90;;;;;;5046947;28;20200;-42
2021/06/30 07:04:14;;;;;;;4.87;4.47;;;17.40;99.90;;;;;;5030944;28;20235;-43
2021/06/30 07:06:40;;;;;;;4.07;3.77;;;17.50;99.90;;;;;;5067728;28;20189;-49
2021/06/30 07:09:06;;;;;;;4.93;4.53;;;17.50;99.90;;;;;;5043259;28;20336;-43
2021/06/30 07:11:32;;;;;;;4.90;4.50;;;17.50;99.90;;;;;;5047320;28;20623;-48
2021/06/30 07:13:58;;;;;;;4.97;4.57;;;17.60;99.90;;;;;;5044832;28;21018;-45
2021/06/30 07:16:24;;;;;;;4.87;4.47;;;17.80;99.90;;;;;;5046376;28;20543;-46
2021/06/30 07:18:50;;;;;;;5.20;4.50;;;17.90;99.90;;;;;;5046130;28;20260;-42
2021/06/30 07:21:16;;;;;;;4.80;4.40;;;18.00;99.90;;;;;;5046766;28;20228;-47
2021/06/30 07:23:42;;;;;;;4.67;4.30;;;18.00;99.90;;;;;;5040644;28;20726;-46
2021/06/30 07:26:12;;;;;;;6.53;4.90;;;18.10;99.90;;;;;;5045146;28;20236;-44
2021/06/30 07:28:38;;;;;;;5.30;4.80;;;18.20;99.90;;;;;;5046373;28;20185;-43
2021/06/30 07:31:04;;;;;;;6.60;4.90;;;18.20;99.90;;;;;;5046616;28;20420;-45
2021/06/30 07:33:29;;;;;;;6.07;5.57;;;18.10;99.90;;;;;;5045769;28;20424;-43
2021/06/30 07:35:55;;;;;;;6.10;5.60;;;18.20;99.90;;;;;;5046029;28;20271;-45
2021/06/30 07:38:21;;;;;;;6.17;5.67;;;18.30;99.90;;;;;;5041584;28;20197;-46
2021/06/30 07:40:46;;;;;;;6.30;5.80;;;18.20;99.90;;;;;;5039354;28;20194;-45
2021/06/30 07:43:12;;;;;;;6.50;5.90;;;18.30;99.90;;;;;;5044496;28;20182;-48
2021/06/30 07:45:38;;;;;;;6.60;6.10;;;18.40;99.90;;;;;;5046958;28;20206;-45
2021/06/30 07:48:04;;;;;;;6.20;5.70;;;18.40;99.90;;;;;;5047104;28;20193;-44
2021/06/30 07:50:29;;;;;;;5.63;5.23;;;18.60;99.90;;;;;;5046565;28;20205;-46
2021/06/30 07:52:55;;;;;;;7.10;6.43;;;18.90;99.90;;;;;;5046247;28;20432;-44
2021/06/30 07:55:24;;;;;;;7.10;6.50;;;19.10;99.90;;;;;;5045973;28;20271;-45
2021/06/30 07:57:50;;;;;;;7.27;6.67;;;19.20;99.90;;;;;;5044955;28;20556;-45
2021/06/30 08:00:16;;;;;;;6.40;6.00;;;19.30;99.90;;;;;;5046668;28;20420;-42
2021/06/30 08:02:42;;;;;;;6.30;5.80;;;19.30;99.90;;;;;;5046392;28;20421;-44
2021/06/30 08:05:09;;;;;;;6.90;6.20;;;19.50;99.90;;;;;;5045534;28;20432;-44
2021/06/30 08:07:35;;;;;;;7.60;6.80;;;19.60;99.90;;;;;;5045624;28;20791;-43
2021/06/30 08:10:06;;;;;;;7.37;6.20;;;19.70;99.90;;;;;;5043976;28;20435;-45
2021/06/30 08:12:32;;;;;;;6.67;6.00;;;19.70;99.90;;;;;;5037672;28;20508;-43
2021/06/30 08:14:58;;;;;;;7.07;6.57;;;19.60;99.90;;;;;;5045715;28;20550;-46
2021/06/30 08:17:24;;;;;;;5.90;5.50;;;19.50;99.90;;;;;;5045575;28;20213;-44
2021/06/30 08:19:49;;;;;;;6.57;6.13;;;19.40;99.90;;;;;;5046216;28;20182;-48
2021/06/30 08:22:15;;;;;;;6.43;5.93;;;19.30;99.90;;;;;;5046111;28;20185;-43
2021/06/30 08:24:43;;;;;;;7.43;6.73;;;19.20;99.90;;;;;;5045810;28;20190;-46
2021/06/30 08:27:10;;;;;;;6.20;5.70;;;19.10;99.90;;;;;;5039187;28;20185;-45
2021/06/30 08:29:36;;;;;;;6.27;5.80;;;19.20;99.90;;;;;;5046387;28;20459;-47
2021/06/30 08:32:03;;;;;;;5.60;5.07;;;19.30;99.90;;;;;;5045875;28;20478;-45
2021/06/30 08:34:29;;;;;;;5.87;5.40;;;19.60;99.90;;;;;;5049061;28;20463;-47
2021/06/30 08:37:00;;;;;;;6.63;5.67;;;19.80;99.90;;;;;;5050025;28;20463;-45
2021/06/30 08:39:27;;;;;;;6.50;6.00;;;20.00;99.90;;;;;;5050267;28;20193;-46
2021/06/30 08:41:53;;;;;;;7.73;5.40;;;20.10;99.90;;;;;;5042415;28;20440;-44
2021/06/30 08:44:20;;;;;;;5.63;5.23;;;20.20;99.90;;;;;;5049755;28;20495;-43
2021/06/30 08:46:46;;;;;;;5.37;5.07;;;20.20;99.90;;;;;;5036919;28;20438;-43
2021/06/30 08:49:14;;;;;;;4.43;4.10;;;20.20;99.90;;;;;;5049932;28;20987;-44
2021/06/30 08:51:40;;;;;;;5.27;4.97;;;20.20;99.90;;;;;;5037350;28;20820;-43
2021/06/30 08:54:10;;;;;;;5.63;5.17;;;20.20;99.90;;;;;;5048749;28;20428;-48
2021/06/30 08:56:36;;;;;;;5.20;4.80;;;20.20;99.90;;;;;;5040233;28;20206;-45
2021/06/30 08:59:02;;;;;;;6.27;5.77;;;20.10;99.90;;;;;;5049605;28;20787;-46
2021/06/30 09:01:30;;;;;;;8.50;5.40;;;20.10;99.90;;;;;;5049762;28;20212;-45
2021/06/30 09:03:57;;;;;;;5.00;4.70;;;20.10;99.90;;;;;;5048682;28;20470;-46
2021/06/30 09:06:24;;;;;;;6.57;5.97;;;20.10;99.90;;;;;;5049682;28;20420;-48
2021/06/30 09:08:50;;;;;;;6.50;5.23;;;19.90;99.90;;;;;;5049221;28;20807;-43
2021/06/30 09:11:21;;;;;;;5.13;4.63;;;19.80;99.90;;;;;;5039837;28;20447;-47
2021/06/30 09:13:48;;;;;;;5.13;4.73;;;19.70;99.90;;;;;;5047467;28;20681;-44
2021/06/30 09:16:15;;;;;;;4.87;4.30;;;19.50;99.90;;;;;;5048256;28;20463;-45
2021/06/30 09:18:41;;;;;;;4.23;3.83;;;19.40;99.90;;;;;;5047979;28;20937;-47
2021/06/30 09:21:29;;;;;;;4.80;4.17;;;19.30;99.90;;;;;;5047918;28;20954;-43
2021/06/30 09:24:05;;;;;;;4.97;3.83;;;19.30;99.90;;;;;;5048520;28;20442;-44
2021/06/30 09:26:36;;;;;;;7.13;3.50;;;19.60;99.90;;;;;;5039876;28;20432;-44
2021/06/30 09:29:05;;;;;;;3.30;3.10;;;19.80;99.90;;;;;;5048957;28;20423;-48
2021/06/30 09:31:30;;;;;;;3.47;3.17;;;20.00;99.90;;;;;;5049471;28;20852;-46
2021/06/30 09:33:57;;;;;;;3.57;3.20;;;20.20;99.90;;;;;;5048488;28;20519;-46
2021/06/30 09:36:24;;;;;;;3.40;3.20;;;20.30;99.90;;;;;;5049001;28;20248;-43
2021/06/30 09:38:51;;;;;;;4.77;3.57;;;20.30;99.90;;;;;;5047867;28;20424;-43
2021/06/30 09:41:25;;;;;;;3.53;3.23;;;20.20;99.90;;;;;;5043004;28;20541;-47
2021/06/30 09:44:04;;;;;;;3.57;3.37;;;20.00;99.90;;;;;;5040315;28;20416;-46
2021/06/30 09:46:30;;;;;;;3.53;3.30;;;19.80;99.90;;;;;;5048417;28;20452;-43
2021/06/30 09:48:57;;;;;;;3.77;3.50;;;19.70;99.90;;;;;;5049252;28;21052;-47
2021/06/30 09:51:23;;;;;;;4.37;3.00;;;19.70;99.90;;;;;;5048616;28;20228;-46
2021/06/30 09:53:49;;;;;;;3.70;2.97;;;19.90;99.90;;;;;;5048366;28;20426;-46
2021/06/30 09:56:32;;;;;;;2.10;2.00;;;20.20;99.90;;;;;;5042586;28;20449;-45
2021/06/30 09:59:21;;;;;;;2.70;2.50;;;20.30;99.90;;;;;;5042657;28;20451;-43
2021/06/30 10:01:53;;;;;;;3.00;2.10;;;20.30;99.90;;;;;;5045937;28;20413;-46
2021/06/30 10:04:31;;;;;;;2.60;2.40;;;20.20;99.90;;;;;;5048330;28;20542;-43
2021/06/30 10:07:04;;;;;;;2.90;2.70;;;20.20;99.90;;;;;;5048300;28;20416;-43
2021/06/30 10:09:31;;;;;;;2.53;2.33;;;20.10;99.90;;;;;;5048498;28;20458;-43
2021/06/30 10:12:04;;;;;;;2.10;1.73;;;20.10;99.90;;;;;;5038090;28;20523;-46
2021/06/30 10:14:30;;;;;;;1.80;1.70;;;20.10;99.90;;;;;;5043936;28;20415;-44
2021/06/30 10:16:57;;;;;;;1.73;1.63;;;20.10;99.90;;;;;;5047081;28;20834;-45
2021/06/30 10:19:23;;;;;;;3.10;1.97;;;20.00;99.90;;;;;;5048274;28;20425;-47
2021/06/30 10:21:49;;;;;;;1.83;1.73;;;20.00;99.90;;;;;;5049937;28;20499;-44
2021/06/30 10:24:15;;;;;;;1.90;1.80;;;20.00;99.90;;;;;;5047794;28;20684;-43
2021/06/30 10:26:41;;;;;;;1.87;1.77;;;20.00;99.90;;;;;;5041716;28;20508;-46
2021/06/30 10:29:08;;;;;;;3.77;1.70;;;20.00;99.90;;;;;;5042989;28;20418;-45
2021/06/30 10:31:35;;;;;;;2.83;1.97;;;19.90;99.90;;;;;;5049743;28;20513;-42
2021/06/30 10:34:13;;;;;;;2.10;2.00;;;20.00;99.90;;;;;;5067209;28;20805;-42
2021/06/30 10:36:51;;;;;;;2.73;2.00;;;20.00;99.90;;;;;;5065883;28;20450;-46
2021/06/30 10:39:36;;;;;;;2.00;1.90;;;20.10;99.90;;;;;;5066737;28;20763;-44
2021/06/30 10:42:36;;;;;;;2.27;1.73;;;20.10;99.90;;;;;;5053549;28;20530;-47
2021/06/30 10:45:14;;;;;;;1.83;1.73;;;20.20;99.90;;;;;;5050685;28;20420;-45
2021/06/30 10:48:02;;;;;;;2.33;1.77;;;20.20;99.90;;;;;;5046463;28;20454;-44
2021/06/30 10:50:29;;;;;;;1.83;1.47;;;20.30;99.90;;;;;;5046812;28;20427;-44
2021/06/30 10:52:55;;;;;;;1.47;1.37;;;20.30;99.90;;;;;;5045376;28;20423;-45
2021/06/30 10:55:33;;;;;;;1.67;1.57;;;20.30;99.90;;;;;;5047643;28;20958;-44
2021/06/30 10:58:11;;;;;;;2.30;2.10;;;20.30;99.90;;;;;;5038861;28;20220;-43
2021/06/30 11:00:50;;;;;;;1.60;1.50;;;20.20;99.90;;;;;;5047389;28;20975;-42
2021/06/30 11:03:40;;;;;;;1.77;1.57;;;20.20;99.90;;;;;;5046501;28;20944;-46
2021/06/30 11:06:09;;;;;;;2.17;1.70;;;20.10;99.90;;;;;;5047580;28;20435;-43
2021/06/30 11:08:45;;;;;;;2.10;2.00;;;20.10;99.90;;;;;;5047097;28;20434;-46
2021/06/30 11:11:24;;;;;;;1.70;1.60;;;20.10;99.90;;;;;;5047766;28;20421;-46
2021/06/30 11:14:23;;;;;;;1.97;1.80;;;20.00;99.90;;;;;;5037502;28;20778;-42
2021/06/30 11:16:52;;;;;;;2.47;1.67;;;20.00;99.90;;;;;;5048676;28;20618;-45
2021/06/30 11:19:17;;;;;;;2.30;2.00;;;20.10;99.90;;;;;;5046430;28;20432;-43
2021/06/30 11:21:45;;;;;;;2.30;1.90;;;20.10;99.90;;;;;;5047277;28;20421;-47
2021/06/30 11:27:12;;;;;;;4.37;1.50;;;20.20;99.90;;;;;;5041985;28;20429;-44
2021/06/30 11:30:02;;;;;;;1.67;1.40;;;20.10;99.90;;;;;;5039925;28;20503;-47
2021/06/30 11:32:38;;;;;;;1.53;1.33;;;20.00;99.90;;;;;;5042990;28;20424;-44
2021/06/30 11:35:09;;;;;;;1.60;1.17;;;19.80;99.90;;;;;;5046170;28;20460;-47
2021/06/30 11:37:39;;;;;;;2.83;1.50;;;19.80;99.90;;;;;;5046931;28;20431;-43
2021/06/30 11:40:16;;;;;;;1.77;1.40;;;19.80;99.90;;;;;;5052532;28;20539;-42
2021/06/30 11:42:47;;;;;;;1.63;1.50;;;19.80;99.90;;;;;;5050273;28;20511;-42
2021/06/30 11:45:26;;;;;;;1.77;1.67;;;19.90;99.90;;;;;;5040557;28;20512;-46
2021/06/30 11:47:54;;;;;;;1.80;1.30;;;20.00;99.90;;;;;;5049733;28;20420;-42
2021/06/30 11:50:22;;;;;;;3.20;1.50;;;19.90;99.90;;;;;;5065331;28;20423;-45
2021/06/30 11:52:48;;;;;;;1.30;1.20;;;19.90;99.90;;;;;;5048738;28;20424;-43
2021/06/30 11:55:15;;;;;;;2.40;1.60;;;19.90;99.90;;;;;;5054912;28;20455;-43
2021/06/30 11:57:58;;;;;;;1.77;1.67;;;19.90;99.90;;;;;;5051882;28;20443;-45
2021/06/30 12:00:26;;;;;;;2.37;1.60;;;19.90;99.90;;;;;;5041877;28;20443;-47
2021/06/30 12:02:54;;;;;;;1.50;1.40;;;19.80;99.90;;;;;;5045784;28;20447;-47
2021/06/30 12:05:23;;;;;;;1.50;1.40;;;19.60;99.90;;;;;;5046074;28;20419;-46
2021/06/30 12:07:49;;;;;;;1.63;1.53;;;19.50;99.90;;;;;;5045616;28;20420;-45
2021/06/30 12:10:16;;;;;;;1.93;1.70;;;19.50;99.90;;;;;;5047185;28;20424;-47
2021/06/30 12:12:43;;;;;;;1.60;1.50;;;19.50;99.90;;;;;;5040186;28;20511;-44
2021/06/30 12:15:10;;;;;;;2.20;2.00;;;19.60;99.90;;;;;;5044750;28;20451;-48
2021/06/30 12:17:37;;;;;;;1.60;1.50;;;19.60;99.90;;;;;;5045567;28;20841;-48
2021/06/30 12:20:05;;;;;;;1.97;1.77;;;19.70;99.90;;;;;;5046074;28;20408;-48
2021/06/30 12:22:31;;;;;;;2.07;1.97;;;19.70;99.90;;;;;;5046011;28;20438;-47
2021/06/30 12:24:58;;;;;;;2.00;1.90;;;19.80;99.90;;;;;;5043474;28;20698;-44
2021/06/30 12:27:34;;;;;;;2.53;2.13;;;19.80;99.90;;;;;;5057305;28;20478;-43
2021/06/30 12:30:05;;;;;;;2.13;2.00;;;19.80;99.90;;;;;;5045640;28;20501;-45
2021/06/30 12:32:32;;;;;;;2.77;2.57;;;19.70;99.90;;;;;;5046201;28;20531;-45
2021/06/30 12:35:05;;;;;;;2.70;2.20;;;19.70;99.90;;;;;;5045050;28;20841;-44
2021/06/30 12:37:31;;;;;;;2.30;2.10;;;19.60;99.90;;;;;;5046010;28;20416;-46
2021/06/30 12:39:59;;;;;;;2.40;2.23;;;19.60;99.90;;;;;;5046234;28;20474;-42
2021/06/30 12:43:21;;;;;;;3.40;1.90;;;19.60;99.90;;;;;;5042008;28;20518;-44
2021/06/30 12:45:47;;;;;;;2.33;2.13;;;19.60;99.90;;;;;;5026709;28;20876;-47